Time;durP1;ratioP1;P1;durP2;ratioP2;P2;SDS_P1;SDS_P2;PMS_P1;PMS_P2;Temp;Humidity;BMP_temperature;BMP_pressure;BME280_temperature;BME280_humidity;BME280_pressure;Samples;Min_cycle;Max_cycle;Signal;HPM_P1;HPM_P2
2022/08/29 00:00:17;;;;;;;;;;;16.20;99.90;;;;;;5030487;28;20356;-69
2022/08/29 00:02:48;;;;;;;;;;;16.30;99.90;;;;;;5030446;28;20054;-69
2022/08/29 00:05:16;;;;;;;;;;;16.40;99.90;;;;;;5023448;28;19932;-69
2022/08/29 00:07:43;;;;;;;;;;;16.30;99.90;;;;;;5015060;28;19913;-69
2022/08/29 00:10:11;;;;;;;;;;;16.20;99.90;;;;;;5009896;28;19932;-69
2022/08/29 00:12:37;;;;;;;;;;;16.20;99.90;;;;;;5010224;28;20466;-69
2022/08/29 00:15:06;;;;;;;;;;;16.20;99.90;;;;;;5012576;28;19921;-69
2022/08/29 00:17:33;;;;;;;;;;;16.20;99.90;;;;;;5030180;28;19929;-69
2022/08/29 00:20:00;;;;;;;;;;;16.30;99.90;;;;;;5030120;28;19979;-69
2022/08/29 00:22:27;;;;;;;;;;;16.30;99.90;;;;;;5030234;28;19957;-69
2022/08/29 00:24:54;;;;;;;;;;;16.30;99.90;;;;;;5030138;28;19916;-69
2022/08/29 00:27:20;;;;;;;;;;;16.40;99.90;;;;;;5030178;28;20042;-69
2022/08/29 00:29:47;;;;;;;;;;;16.40;99.90;;;;;;5029866;28;20012;-69
2022/08/29 00:32:14;;;;;;;;;;;16.50;99.90;;;;;;5030039;28;19909;-69
2022/08/29 00:34:40;;;;;;;;;;;16.60;99.90;;;;;;5030058;28;19985;-70
2022/08/29 00:37:07;;;;;;;;;;;16.70;99.90;;;;;;5030271;28;19909;-69
2022/08/29 00:39:34;;;;;;;;;;;16.70;99.90;;;;;;5030129;28;19913;-70
2022/08/29 00:42:00;;;;;;;;;;;16.80;99.90;;;;;;5030074;28;19913;-69
2022/08/29 00:44:28;;;;;;;;;;;17.00;99.90;;;;;;5030065;28;20008;-69
2022/08/29 00:46:56;;;;;;;;;;;17.20;99.90;;;;;;5029831;28;19909;-69
2022/08/29 00:49:49;;;;;;;;;;;17.40;99.90;;;;;;5030033;28;19996;-69
2022/08/29 00:52:30;;;;;;;;;;;17.70;99.90;;;;;;5027169;28;19952;-70
2022/08/29 00:54:58;;;;;;;;;;;17.70;99.90;;;;;;5029975;28;19909;-70
2022/08/29 00:57:26;;;;;;;;;;;17.80;99.90;;;;;;5029860;28;19909;-70
2022/08/29 00:59:52;;;;;;;;;;;17.90;99.90;;;;;;5029685;28;19914;-70
2022/08/29 01:02:19;;;;;;;;;;;17.90;99.90;;;;;;5029771;28;19909;-69
2022/08/29 01:04:46;;;;;;;;;;;18.00;99.90;;;;;;5029742;28;19909;-70
2022/08/29 01:07:13;;;;;;;;;;;18.00;99.90;;;;;;5029726;28;20378;-70
2022/08/29 01:09:41;;;;;;;;;;;18.10;99.90;;;;;;5029428;28;20001;-69
2022/08/29 01:12:18;;;;;;;;;;;18.30;99.90;;;;;;5029710;28;19909;-69
2022/08/29 01:14:55;;;;;;;;;;;18.40;99.90;;;;;;5029589;28;19993;-69
2022/08/29 01:17:26;;;;;;;;;;;18.50;99.90;;;;;;5030225;28;19910;-69
2022/08/29 01:19:53;;;;;;;;;;;18.40;99.90;;;;;;5031030;28;19914;-69
2022/08/29 01:22:33;;;;;;;;;;;18.50;99.90;;;;;;5032930;28;19913;-69
2022/08/29 01:25:02;;;;;;;;;;;18.50;99.90;;;;;;5031650;28;19938;-68
2022/08/29 01:27:30;;;;;;;;;;;18.50;99.90;;;;;;5064726;28;19913;-69
2022/08/29 01:29:57;;;;;;;;;;;18.70;99.90;;;;;;5032814;28;19910;-69
2022/08/29 01:32:24;;;;;;;;;;;18.60;99.90;;;;;;5032721;28;19971;-68
2022/08/29 01:34:51;;;;;;;;;;;18.40;99.90;;;;;;5032655;28;19916;-69
2022/08/29 01:37:19;;;;;;;;;;;18.30;99.90;;;;;;5032801;28;19932;-70
2022/08/29 01:39:45;;;;;;;;;;;18.30;99.90;;;;;;5032531;28;19909;-68
2022/08/29 01:42:20;;;;;;;;;;;18.10;99.90;;;;;;5032712;28;20041;-68
2022/08/29 01:44:51;;;;;;;;;;;18.00;99.90;;;;;;5032663;28;20001;-69
2022/08/29 01:47:18;;;;;;;;;;;18.00;99.90;;;;;;5032704;28;19915;-70
2022/08/29 01:49:45;;;;;;;;;;;18.10;99.90;;;;;;5032648;28;20355;-68
2022/08/29 01:52:12;;;;;;;;;;;18.10;99.90;;;;;;5031328;28;19929;-68
2022/08/29 01:54:40;;;;;;;;;;;18.10;99.90;;;;;;5032662;28;19916;-68
2022/08/29 01:57:08;;;;;;;;;;;18.20;99.90;;;;;;5032480;28;19909;-69
2022/08/29 01:59:35;;;;;;;;;;;18.20;99.90;;;;;;5032530;28;19913;-69
2022/08/29 02:02:04;;;;;;;;;;;18.10;99.90;;;;;;5032284;28;19917;-69
2022/08/29 02:04:31;;;;;;;;;;;18.00;99.90;;;;;;5032510;28;19935;-69
2022/08/29 02:06:58;;;;;;;;;;;18.10;99.90;;;;;;5032409;28;19949;-68
2022/08/29 02:09:26;;;;;;;;;;;18.20;99.90;;;;;;5063980;28;19921;-68
2022/08/29 02:11:53;;;;;;;;;;;18.10;99.90;;;;;;5032248;28;19909;-69
2022/08/29 02:14:21;;;;;;;;;;;18.00;99.90;;;;;;5035861;28;19909;-70
2022/08/29 02:16:48;;;;;;;;;;;18.10;99.90;;;;;;5034085;28;20263;-68
2022/08/29 02:19:17;;;;;;;;;;;18.00;99.90;;;;;;5032202;28;19910;-68
2022/08/29 02:21:44;;;;;;;;;;;17.90;99.90;;;;;;5031804;28;19918;-69
2022/08/29 02:24:10;;;;;;;;;;;17.90;99.90;;;;;;5031943;28;19916;-69
2022/08/29 02:26:37;;;;;;;;;;;17.80;99.90;;;;;;5032056;28;20009;-68
2022/08/29 02:29:04;;;;;;;;;;;17.80;99.90;;;;;;5032235;28;19913;-71
2022/08/29 02:31:31;;;;;;;;;;;17.80;99.90;;;;;;5031757;28;19909;-68
2022/08/29 02:33:57;;;;;;;;;;;17.70;99.90;;;;;;5031749;28;19939;-69
2022/08/29 02:36:25;;;;;;;;;;;17.70;99.90;;;;;;5024819;28;20522;-69
2022/08/29 02:38:52;;;;;;;;;;;17.70;99.90;;;;;;5016049;28;19918;-69
2022/08/29 02:41:19;;;;;;;;;;;17.70;99.90;;;;;;5011477;28;19921;-68
2022/08/29 02:43:46;;;;;;;;;;;17.80;99.90;;;;;;5026533;28;19945;-69
2022/08/29 02:46:15;;;;;;;;;;;17.80;99.90;;;;;;5011420;28;19914;-67
2022/08/29 02:48:42;;;;;;;;;;;17.80;99.90;;;;;;5011393;28;19970;-68
2022/08/29 02:51:09;;;;;;;;;;;17.90;99.90;;;;;;5011436;28;19910;-69
2022/08/29 02:53:36;;;;;;;;;;;17.80;99.90;;;;;;5011430;28;19917;-68
2022/08/29 02:56:02;;;;;;;;;;;17.90;99.90;;;;;;5012008;28;19985;-68
2022/08/29 02:58:30;;;;;;;;;;;17.90;99.90;;;;;;5021728;28;19916;-68
2022/08/29 03:00:57;;;;;;;;;;;18.00;99.90;;;;;;5032180;28;20053;-69
2022/08/29 03:03:24;;;;;;;;;;;17.90;99.90;;;;;;5032588;28;19909;-69
2022/08/29 03:05:51;;;;;;;;;;;17.90;99.90;;;;;;5033124;28;19939;-68
2022/08/29 03:08:17;;;;;;;;;;;18.00;99.90;;;;;;5036232;28;20347;-68
2022/08/29 03:10:44;;;;;;;;;;;18.00;99.90;;;;;;5035996;28;19917;-69
2022/08/29 03:13:11;;;;;;;;;;;18.10;99.90;;;;;;5037919;28;20356;-68
2022/08/29 03:15:38;;;;;;;;;;;18.10;99.90;;;;;;5040910;28;19909;-68
2022/08/29 03:18:04;;;;;;;;;;;18.10;99.90;;;;;;5039995;28;19909;-68
2022/08/29 03:20:33;;;;;;;;;;;18.20;99.90;;;;;;5040203;28;19955;-68
2022/08/29 03:22:59;;;;;;;;;;;18.20;99.90;;;;;;5039984;28;19909;-68
2022/08/29 03:25:26;;;;;;;;;;;18.20;99.90;;;;;;5035677;28;19909;-68
2022/08/29 03:27:53;;;;;;;;;;;18.20;99.90;;;;;;5032605;28;19909;-70
2022/08/29 03:30:20;;;;;;;;;;;18.10;99.90;;;;;;5031853;28;19916;-68
2022/08/29 03:32:47;;;;;;;;;;;18.10;99.90;;;;;;5031992;28;19923;-68
2022/08/29 03:35:14;;;;;;;;;;;18.00;99.90;;;;;;5031387;28;19909;-70
2022/08/29 03:37:41;;;;;;;;;;;18.00;99.90;;;;;;5031256;28;19910;-70
2022/08/29 03:40:08;;;;;;;;;;;18.00;99.90;;;;;;5030920;28;19919;-70
2022/08/29 03:42:35;;;;;;;;;;;18.00;99.90;;;;;;5030370;28;19909;-70
2022/08/29 03:45:06;;;;;;;;;;;18.00;99.90;;;;;;5031019;28;19920;-71
2022/08/29 03:47:33;;;;;;;;;;;18.00;99.90;;;;;;5030979;28;19910;-69
2022/08/29 03:50:00;;;;;;;;;;;18.10;99.90;;;;;;5031213;28;19917;-70
2022/08/29 03:52:27;;;;;;;;;;;18.00;99.90;;;;;;5030958;28;19953;-70
2022/08/29 03:54:54;;;;;;;;;;;18.00;99.90;;;;;;5031608;28;19909;-70
2022/08/29 03:57:20;;;;;;;;;;;17.90;99.90;;;;;;5030897;28;19935;-69
2022/08/29 03:59:47;;;;;;;;;;;17.80;99.90;;;;;;5030649;28;19913;-70
2022/08/29 04:02:14;;;;;;;;;;;17.80;99.90;;;;;;5035895;28;19920;-70
2022/08/29 04:07:25;;;;;;;;;;;17.80;99.90;;;;;;5031082;28;19915;-71
2022/08/29 04:09:52;;;;;;;;;;;17.80;99.90;;;;;;5030312;28;20372;-71
2022/08/29 04:12:23;;;;;;;;;;;17.70;99.90;;;;;;5029805;28;20332;-72
2022/08/29 04:14:50;;;;;;;;;;;17.70;99.90;;;;;;5023227;28;19917;-71
2022/08/29 04:17:16;;;;;;;;;;;17.80;99.90;;;;;;5014163;28;19964;-69
2022/08/29 04:19:43;;;;;;;;;;;17.80;99.90;;;;;;5009643;28;19955;-72
2022/08/29 04:22:11;;;;;;;;;;;17.80;99.90;;;;;;5017419;28;19920;-71
2022/08/29 04:24:38;;;;;;;;;;;17.80;99.90;;;;;;5030672;28;19955;-71
2022/08/29 04:27:06;;;;;;;;;;;17.90;99.90;;;;;;5030555;28;20306;-71
2022/08/29 04:29:34;;;;;;;;;;;17.90;99.90;;;;;;5030343;28;19910;-71
2022/08/29 04:32:00;;;;;;;;;;;17.90;99.90;;;;;;5030415;28;19916;-71
2022/08/29 04:34:27;;;;;;;;;;;17.90;99.90;;;;;;5030401;28;20252;-72
2022/08/29 04:36:54;;;;;;;;;;;17.90;99.90;;;;;;5030432;28;19909;-71
2022/08/29 04:39:20;;;;;;;;;;;17.90;99.90;;;;;;5030352;28;19993;-70
2022/08/29 04:41:47;;;;;;;;;;;17.90;99.90;;;;;;5030036;28;19924;-71
2022/08/29 04:44:14;;;;;;;;;;;17.90;99.90;;;;;;5030320;28;19913;-70
2022/08/29 04:46:40;;;;;;;;;;;17.90;99.90;;;;;;5030100;28;19909;-71
2022/08/29 04:49:08;;;;;;;;;;;17.90;99.90;;;;;;5030350;28;20321;-71
2022/08/29 04:51:35;;;;;;;;;;;17.80;99.90;;;;;;5030236;28;19909;-71
2022/08/29 04:54:05;;;;;;;;;;;17.80;99.90;;;;;;5031893;28;20007;-71
2022/08/29 04:56:32;;;;;;;;;;;17.80;99.90;;;;;;5033376;28;19917;-71
2022/08/29 04:58:59;;;;;;;;;;;17.80;99.90;;;;;;5032027;28;20205;-71
2022/08/29 05:01:26;;;;;;;;;;;17.80;99.90;;;;;;5033052;28;19921;-72
2022/08/29 05:03:54;;;;;;;;;;;17.70;99.90;;;;;;5033193;28;19954;-71
2022/08/29 05:06:22;;;;;;;;;;;17.70;99.90;;;;;;5033308;28;20385;-72
2022/08/29 05:08:51;;;;;;;;;;;17.70;99.90;;;;;;5031692;28;20362;-72
2022/08/29 05:11:18;;;;;;;;;;;17.70;99.90;;;;;;5033165;28;19940;-72
2022/08/29 05:13:46;;;;;;;;;;;17.60;99.90;;;;;;5032859;28;20267;-71
2022/08/29 05:16:14;;;;;;;;;;;17.60;99.90;;;;;;5033096;28;19917;-71
2022/08/29 05:18:43;;;;;;;;;;;17.60;99.90;;;;;;5033109;28;19910;-72
2022/08/29 05:21:11;;;;;;;;;;;17.60;99.90;;;;;;5032874;28;19917;-71
2022/08/29 05:23:37;;;;;;;;;;;17.60;99.90;;;;;;5032829;28;19997;-70
2022/08/29 05:26:04;;;;;;;;;;;17.50;99.90;;;;;;5032918;28;20359;-71
2022/08/29 05:28:32;;;;;;;;;;;17.50;99.90;;;;;;5032737;28;19958;-71
2022/08/29 05:30:59;;;;;;;;;;;17.50;99.90;;;;;;5032809;28;19909;-70
2022/08/29 05:33:29;;;;;;;;;;;17.40;99.90;;;;;;5032929;28;20004;-71
2022/08/29 05:35:56;;;;;;;;;;;17.40;99.90;;;;;;5032680;28;19956;-70
2022/08/29 05:38:23;;;;;;;;;;;17.40;99.90;;;;;;5032793;28;20317;-71
2022/08/29 05:40:50;;;;;;;;;;;17.40;99.90;;;;;;5032525;28;19917;-70
2022/08/29 05:43:17;;;;;;;;;;;17.30;99.90;;;;;;5032675;28;19915;-71
2022/08/29 05:45:43;;;;;;;;;;;17.30;99.90;;;;;;5032287;28;19909;-71
2022/08/29 05:48:10;;;;;;;;;;;17.30;99.90;;;;;;5032587;28;19909;-73
2022/08/29 05:50:41;;;;;;;;;;;17.30;99.90;;;;;;5032744;28;19915;-71
2022/08/29 05:53:09;;;;;;;;;;;17.20;99.90;;;;;;5032401;28;19909;-71
2022/08/29 05:55:40;;;;;;;;;;;17.20;99.90;;;;;;5032243;28;19913;-71
2022/08/29 05:58:06;;;;;;;;;;;17.10;99.90;;;;;;5032538;28;19913;-70
2022/08/29 06:00:34;;;;;;;;;;;17.10;99.90;;;;;;5032333;28;19921;-72
2022/08/29 06:03:00;;;;;;;;;;;17.10;99.90;;;;;;5031320;28;20283;-71
2022/08/29 06:05:27;;;;;;;;;;;17.00;99.90;;;;;;5031826;28;19962;-71
2022/08/29 06:07:54;;;;;;;;;;;17.10;99.90;;;;;;5032179;28;19955;-71
2022/08/29 06:10:20;;;;;;;;;;;17.00;99.90;;;;;;5032067;28;19921;-71
2022/08/29 06:12:47;;;;;;;;;;;17.00;99.90;;;;;;5064138;28;19913;-71
2022/08/29 06:15:14;;;;;;;;;;;16.90;99.90;;;;;;5032095;28;19910;-71
2022/08/29 06:17:41;;;;;;;;;;;16.80;99.90;;;;;;5032037;28;20226;-72
2022/08/29 06:20:08;;;;;;;;;;;16.80;99.90;;;;;;5032023;28;20011;-72
2022/08/29 06:22:36;;;;;;;;;;;16.70;99.90;;;;;;5032078;28;19917;-71
2022/08/29 06:25:07;;;;;;;;;;;16.70;99.90;;;;;;5032103;28;19913;-71
2022/08/29 06:27:34;;;;;;;;;;;16.70;99.90;;;;;;5032057;28;19917;-71
2022/08/29 06:30:01;;;;;;;;;;;16.60;99.90;;;;;;5031902;28;19909;-71
2022/08/29 06:32:28;;;;;;;;;;;16.60;99.90;;;;;;5031800;28;19909;-71
2022/08/29 06:34:54;;;;;;;;;;;16.60;99.90;;;;;;5031747;28;20316;-70
2022/08/29 06:37:21;;;;;;;;;;;16.50;99.90;;;;;;5031946;28;19917;-72
2022/08/29 06:39:48;;;;;;;;;;;16.50;99.90;;;;;;5031620;28;19909;-72
2022/08/29 06:42:17;;;;;;;;;;;16.50;99.90;;;;;;5031755;28;20264;-70
2022/08/29 06:44:44;;;;;;;;;;;16.40;99.90;;;;;;5063482;28;19916;-70
2022/08/29 06:47:11;;;;;;;;;;;16.40;99.90;;;;;;5031702;28;19909;-71
2022/08/29 06:49:37;;;;;;;;;;;16.40;99.90;;;;;;5031538;28;19953;-70
2022/08/29 06:52:04;;;;;;;;;;;16.30;99.90;;;;;;5031622;28;19910;-69
2022/08/29 06:54:31;;;;;;;;;;;16.30;99.90;;;;;;5031595;28;19953;-70
2022/08/29 06:56:58;;;;;;;;;;;16.30;99.90;;;;;;5031418;28;19909;-71
2022/08/29 06:59:28;;;;;;;;;;;16.30;99.90;;;;;;5031380;28;20252;-69
2022/08/29 07:01:55;;;;;;;;;;;16.30;99.90;;;;;;5031190;28;20316;-70
2022/08/29 07:04:21;;;;;;;;;;;16.30;99.90;;;;;;5063035;27;19913;-71
2022/08/29 07:06:48;;;;;;;;;;;16.30;99.90;;;;;;5031087;28;19909;-70
2022/08/29 07:09:16;;;;;;;;;;;16.30;99.90;;;;;;5031191;28;19998;-70
2022/08/29 07:11:43;;;;;;;;;;;16.30;99.90;;;;;;5030596;28;19913;-70
2022/08/29 07:14:10;;;;;;;;;;;16.30;99.90;;;;;;5031074;28;20305;-71
2022/08/29 07:16:37;;;;;;;;;;;16.30;99.90;;;;;;5030081;28;19916;-70
2022/08/29 07:19:05;;;;;;;;;;;16.20;99.90;;;;;;5030894;28;20324;-71
2022/08/29 07:21:32;;;;;;;;;;;16.20;99.90;;;;;;5030736;28;19964;-72
2022/08/29 07:23:58;;;;;;;;;;;16.20;99.90;;;;;;5030677;28;19910;-71
2022/08/29 07:26:30;;;;;;;;;;;16.20;99.90;;;;;;5030558;28;19933;-70
2022/08/29 07:29:01;;;;;;;;;;;16.10;99.90;;;;;;5030733;28;20020;-71
2022/08/29 07:31:27;;;;;;;;;;;16.10;99.90;;;;;;5030746;28;20287;-69
2022/08/29 07:33:54;;;;;;;;;;;16.10;99.90;;;;;;5030514;28;19916;-72
2022/08/29 07:36:21;;;;;;;;;;;16.10;99.90;;;;;;5030728;28;20000;-69
2022/08/29 07:38:47;;;;;;;;;;;16.10;99.90;;;;;;5033179;28;19963;-70
2022/08/29 07:41:14;;;;;;;;;;;16.10;99.90;;;;;;5032116;28;19924;-70
2022/08/29 07:43:42;;;;;;;;;;;16.10;99.90;;;;;;5030336;28;20295;-71
2022/08/29 07:46:10;;;;;;;;;;;16.10;99.90;;;;;;5030339;28;19928;-71
2022/08/29 07:48:36;;;;;;;;;;;16.10;99.90;;;;;;5030651;28;19931;-71
2022/08/29 07:51:07;;;;;;;;;;;16.10;99.90;;;;;;5030526;28;20359;-71
2022/08/29 07:53:34;;;;;;;;;;;16.10;99.90;;;;;;5030419;28;20370;-70
2022/08/29 07:56:06;;;;;;;;;;;16.10;99.90;;;;;;5062323;28;20325;-69
2022/08/29 07:58:32;;;;;;;;;;;16.10;99.90;;;;;;5030321;28;19992;-71
2022/08/29 08:00:59;;;;;;;;;;;16.10;99.90;;;;;;5030360;28;20016;-71
2022/08/29 08:03:26;;;;;;;;;;;16.10;99.90;;;;;;5030423;28;19925;-71
2022/08/29 08:05:53;;;;;;;;;;;16.10;99.90;;;;;;5028402;28;19909;-71
2022/08/29 08:08:20;;;;;;;;;;;16.10;99.90;;;;;;5030145;28;19909;-69
2022/08/29 08:10:47;;;;;;;;;;;16.10;99.90;;;;;;5030061;28;19925;-69
2022/08/29 08:13:13;;;;;;;;;;;16.20;99.90;;;;;;5030159;28;19945;-70
2022/08/29 08:15:40;;;;;;;;;;;16.10;99.90;;;;;;5030109;28;19954;-70
2022/08/29 08:18:07;;;;;;;;;;;16.10;99.90;;;;;;5030078;28;19910;-70
2022/08/29 08:20:34;;;;;;;;;;;16.10;99.90;;;;;;5030167;28;20391;-70
2022/08/29 08:23:00;;;;;;;;;;;16.10;99.90;;;;;;5030228;28;19909;-70
2022/08/29 08:25:27;;;;;;;;;;;16.10;99.90;;;;;;5030202;28;19909;-69
2022/08/29 08:27:54;;;;;;;;;;;16.10;99.90;;;;;;5030243;28;19940;-70
2022/08/29 08:30:21;;;;;;;;;;;16.10;99.90;;;;;;5033726;28;20386;-70
2022/08/29 08:32:47;;;;;;;;;;;16.10;99.90;;;;;;5033665;28;19909;-71
2022/08/29 08:35:15;;;;;;;;;;;16.00;99.90;;;;;;5033430;28;19910;-71
2022/08/29 08:37:42;;;;;;;;;;;16.10;99.90;;;;;;5033443;28;19992;-71
2022/08/29 08:40:15;;;;;;;;;;;16.00;99.90;;;;;;5033632;28;19973;-69
2022/08/29 08:42:43;;;;;;;;;;;16.00;99.90;;;;;;5065739;28;19917;-70
2022/08/29 08:45:12;;;;;;;;;;;16.00;99.90;;;;;;5033500;28;19952;-70
2022/08/29 08:48:02;;;;;;;;;;;16.00;99.90;;;;;;5033288;28;20355;-70
2022/08/29 08:50:29;;;;;;;;;;;16.00;99.90;;;;;;5025375;28;19909;-70
2022/08/29 08:53:16;;;;;;;;;;;16.00;99.90;;;;;;5033443;28;19977;-71
2022/08/29 08:55:45;;;;;;;;;;;16.00;99.90;;;;;;5033310;28;19909;-71
2022/08/29 08:58:18;;;;;;;;;;;16.00;99.90;;;;;;5033211;28;19916;-69
2022/08/29 09:00:55;;;;;;;;;;;16.00;99.90;;;;;;5033082;28;19963;-72
2022/08/29 09:03:25;;;;;;;;;;;16.00;99.90;;;;;;5033179;28;19947;-71
2022/08/29 09:06:00;;;;;;;;;;;16.00;99.90;;;;;;5032735;28;20351;-70
2022/08/29 09:08:43;;;;;;;;;;;16.00;99.90;;;;;;5032970;28;19999;-72
2022/08/29 09:11:19;;;;;;;;;;;16.00;99.90;;;;;;5033103;28;19970;-72
2022/08/29 09:13:52;;;;;;;;;;;16.00;99.90;;;;;;5032768;28;20263;-70
2022/08/29 09:16:24;;;;;;;;;;;16.00;99.90;;;;;;5032914;28;19954;-70
2022/08/29 09:18:51;;;;;;;;;;;16.00;99.90;;;;;;5032970;28;19909;-71
2022/08/29 09:21:19;;;;;;;;;;;16.00;99.90;;;;;;5064833;28;19970;-70
2022/08/29 09:23:48;;;;;;;;;;;16.00;99.90;;;;;;5032714;28;19931;-70
2022/08/29 09:26:19;;;;;;;;;;;16.00;99.90;;;;;;5033324;28;20313;-71
2022/08/29 09:28:46;;;;;;;;;;;16.00;99.90;;;;;;5032678;28;20344;-70
2022/08/29 09:31:19;;;;;;;;;;;16.00;99.90;;;;;;5032890;28;19970;-70
2022/08/29 09:33:48;;;;;;;;;;;16.00;99.90;;;;;;5032744;28;19909;-70
2022/08/29 09:36:31;;;;;;;;;;;16.00;99.90;;;;;;5032832;28;20003;-70
2022/08/29 09:39:12;;;;;;;;;;;16.00;99.90;;;;;;5031077;28;19956;-70
2022/08/29 09:41:39;;;;;;;;;;;16.00;99.90;;;;;;5031376;28;20012;-70
2022/08/29 09:44:08;;;;;;;;;;;16.00;99.90;;;;;;5031828;28;19916;-70
2022/08/29 09:46:35;;;;;;;;;;;16.10;99.90;;;;;;5030532;28;19962;-70
2022/08/29 09:49:04;;;;;;;;;;;16.10;99.90;;;;;;5030623;28;19909;-70
2022/08/29 09:51:35;;;;;;;;;;;16.00;99.90;;;;;;5030643;28;20010;-70
2022/08/29 09:54:13;;;;;;;;;;;16.00;99.90;;;;;;5030482;28;19971;-71
2022/08/29 09:56:51;;;;;;;;;;;16.00;99.90;;;;;;5011853;28;19909;-71
2022/08/29 09:59:21;;;;;;;;;;;16.00;99.90;;;;;;5010356;28;19917;-70
2022/08/29 10:01:48;;;;;;;;;;;16.00;99.90;;;;;;5012176;28;20253;-70
2022/08/29 10:04:34;;;;;;;;;;;16.00;99.90;;;;;;5012408;28;19914;-70
2022/08/29 10:07:08;;;;;;;;;;;16.10;99.90;;;;;;5012489;28;20290;-71
2022/08/29 10:09:35;;;;;;;;;;;16.00;99.90;;;;;;5012150;28;19928;-71
2022/08/29 10:12:05;;;;;;;;;;;16.10;99.90;;;;;;5012528;28;19914;-71
2022/08/29 10:14:42;;;;;;;;;;;16.00;99.90;;;;;;5012052;28;19918;-72
2022/08/29 10:19:55;;;;;;;;;;;16.10;99.90;;;;;;5012127;28;19943;-70
2022/08/29 10:22:41;;;;;;;;;;;16.00;99.90;;;;;;5012515;28;19913;-71
2022/08/29 10:25:15;;;;;;;;;;;16.00;99.90;;;;;;5012387;28;19909;-72
2022/08/29 10:27:48;;;;;;;;;;;16.00;99.90;;;;;;5043372;28;19918;-72
2022/08/29 10:30:41;;;;;;;;;;;16.00;99.90;;;;;;5012390;28;19913;-70
2022/08/29 10:33:08;;;;;;;;;;;16.10;99.90;;;;;;5010151;28;20046;-72
2022/08/29 10:36:05;;;;;;;;;;;16.10;99.90;;;;;;5011917;28;20419;-70
2022/08/29 10:38:45;;;;;;;;;;;16.10;99.90;;;;;;5003760;28;20316;-71
2022/08/29 10:41:32;;;;;;;;;;;16.10;99.90;;;;;;5012117;28;19924;-72
2022/08/29 10:44:18;;;;;;;;;;;16.10;99.90;;;;;;5011344;28;20371;-72
2022/08/29 10:47:16;;;;;;;;;;;16.10;99.90;;;;;;5012068;28;19910;-69
2022/08/29 10:49:52;;;;;;;;;;;16.10;99.90;;;;;;4989366;28;19909;-70
2022/08/29 10:52:42;;;;;;;;;;;16.10;99.90;;;;;;5011785;28;19916;-73
2022/08/29 10:55:21;;;;;;;;;;;16.10;99.90;;;;;;5006419;28;20355;-72
2022/08/29 10:57:48;;;;;;;;;;;16.10;99.90;;;;;;5010880;28;19909;-72
2022/08/29 11:00:19;;;;;;;;;;;16.10;99.90;;;;;;5011552;28;19913;-70
2022/08/29 11:02:51;;;;;;;;;;;16.10;99.90;;;;;;5010672;28;20346;-72
2022/08/29 11:05:22;;;;;;;;;;;16.20;99.90;;;;;;5011799;28;19962;-72
2022/08/29 11:07:52;;;;;;;;;;;16.10;99.90;;;;;;5011443;28;19910;-72
2022/08/29 11:10:22;;;;;;;;;;;16.20;99.90;;;;;;5011339;28;19929;-73
2022/08/29 11:13:02;;;;;;;;;;;16.20;99.90;;;;;;5010841;28;19909;-71
2022/08/29 11:15:43;;;;;;;;;;;16.20;99.90;;;;;;5015597;28;20354;-70
2022/08/29 11:18:13;;;;;;;;;;;16.20;99.90;;;;;;5011555;28;19909;-70
2022/08/29 11:20:43;;;;;;;;;;;16.20;99.90;;;;;;5011257;28;19959;-71
2022/08/29 11:23:22;;;;;;;;;;;16.20;99.90;;;;;;5010268;28;20356;-71
2022/08/29 11:25:49;;;;;;;;;;;16.20;99.90;;;;;;5011268;28;19913;-71
2022/08/29 11:28:21;;;;;;;;;;;16.20;99.90;;;;;;5010607;28;19910;-71
2022/08/29 11:30:58;;;;;;;;;;;16.20;99.90;;;;;;5011293;28;20008;-71
2022/08/29 11:33:31;;;;;;;;;;;16.10;99.90;;;;;;5011362;28;19909;-70
2022/08/29 11:36:10;;;;;;;;;;;16.20;99.90;;;;;;5011114;28;19909;-70
2022/08/29 11:38:43;;;;;;;;;;;16.20;99.90;;;;;;5011270;28;19959;-72
2022/08/29 11:41:24;;;;;;;;;;;16.10;99.90;;;;;;5011116;28;19913;-72
2022/08/29 11:43:56;;;;;;;;;;;16.20;99.90;;;;;;5010146;28;19914;-72
2022/08/29 11:46:36;;;;;;;;;;;16.10;99.90;;;;;;5042008;28;19924;-71
2022/08/29 11:49:32;;;;;;;;;;;16.10;99.90;;;;;;5011268;28;20004;-71
2022/08/29 11:52:12;;;;;;;;;;;16.10;99.90;;;;;;5002525;28;20359;-71
2022/08/29 11:54:39;;;;;;;;;;;16.10;99.90;;;;;;5011111;28;19909;-72
2022/08/29 11:57:09;;;;;;;;;;;16.00;99.90;;;;;;5010287;28;20288;-70
2022/08/29 11:59:47;;;;;;;;;;;16.00;99.90;;;;;;5010655;28;19914;-69
2022/08/29 12:02:29;;;;;;;;;;;16.00;99.90;;;;;;5010744;28;19921;-69
2022/08/29 12:04:56;;;;;;;;;;;15.90;99.90;;;;;;5010623;28;19971;-70
2022/08/29 12:07:43;;;;;;;;;;;16.00;99.90;;;;;;5010924;28;20004;-69
2022/08/29 12:10:19;;;;;;;;;;;15.90;99.90;;;;;;5010883;28;20002;-71
2022/08/29 12:12:47;;;;;;;;;;;15.90;99.90;;;;;;5010191;28;19916;-71
2022/08/29 12:15:26;;;;;;;;;;;16.00;99.90;;;;;;5010826;28;20415;-69
2022/08/29 12:17:57;;;;;;;;;;;15.90;99.90;;;;;;5010665;28;20321;-69
2022/08/29 12:20:30;;;;;;;;;;;15.90;99.90;;;;;;5010877;28;19914;-69
2022/08/29 12:23:12;;;;;;;;;;;16.00;99.90;;;;;;5010600;28;19913;-69
2022/08/29 12:25:44;;;;;;;;;;;15.90;99.90;;;;;;5010508;28;19917;-69
2022/08/29 12:28:20;;;;;;;;;;;16.00;99.90;;;;;;5009835;28;19910;-68
2022/08/29 12:30:49;;;;;;;;;;;15.90;99.90;;;;;;5010572;28;20006;-68
2022/08/29 12:33:16;;;;;;;;;;;15.90;99.90;;;;;;5010634;28;20280;-68
2022/08/29 12:35:49;;;;;;;;;;;15.90;99.90;;;;;;5010326;28;19913;-68
2022/08/29 12:38:18;;;;;;;;;;;15.90;99.90;;;;;;5010492;28;19913;-68
2022/08/29 12:40:48;;;;;;;;;;;15.90;99.90;;;;;;5010552;28;19991;-69
2022/08/29 12:43:19;;;;;;;;;;;15.90;99.90;;;;;;5009500;28;19917;-68
2022/08/29 12:45:46;;;;;;;;;;;15.90;99.90;;;;;;5009974;28;20261;-69
2022/08/29 12:48:17;;;;;;;;;;;15.80;99.90;;;;;;5041903;28;20352;-70
2022/08/29 12:50:46;;;;;;;;;;;15.80;99.90;;;;;;5010210;28;19982;-70
2022/08/29 12:53:16;;;;;;;;;;;15.80;99.90;;;;;;5010478;28;20004;-68
2022/08/29 12:55:45;;;;;;;;;;;15.80;99.90;;;;;;5009936;28;19909;-69
2022/08/29 12:58:13;;;;;;;;;;;15.80;99.90;;;;;;5009380;28;19910;-69
2022/08/29 13:00:40;;;;;;;;;;;15.80;99.90;;;;;;5009900;28;19914;-69
2022/08/29 13:03:16;;;;;;;;;;;15.80;99.90;;;;;;5009907;28;19978;-69
2022/08/29 13:05:43;;;;;;;;;;;15.80;99.90;;;;;;5009837;28;19914;-69
2022/08/29 13:08:12;;;;;;;;;;;15.70;99.90;;;;;;5011400;27;20050;-69
2022/08/29 13:11:01;;;;;;;;;;;15.70;99.90;;;;;;5010180;28;19921;-68
2022/08/29 13:13:29;;;;;;;;;;;15.70;99.90;;;;;;5010105;28;19909;-69
2022/08/29 13:15:59;;;;;;;;;;;15.70;99.90;;;;;;5013026;28;19909;-71
2022/08/29 13:18:25;;;;;;;;;;;15.70;99.90;;;;;;5013389;28;19910;-69
2022/08/29 13:21:06;;;;;;;;;;;15.80;99.90;;;;;;5012959;28;19921;-69
2022/08/29 13:23:46;;;;;;;;;;;15.80;99.90;;;;;;5013274;28;20360;-69
2022/08/29 13:26:13;;;;;;;;;;;15.80;99.90;;;;;;5013287;28;20291;-69
2022/08/29 13:28:49;;;;;;;;;;;15.70;99.90;;;;;;5013245;28;19988;-69
2022/08/29 13:31:17;;;;;;;;;;;15.70;99.90;;;;;;5013279;28;20330;-69
2022/08/29 13:33:49;;;;;;;;;;;15.70;99.90;;;;;;5012797;28;20351;-69
2022/08/29 13:36:34;;;;;;;;;;;15.70;99.90;;;;;;5012970;28;19917;-70
2022/08/29 13:39:16;;;;;;;;;;;15.60;99.90;;;;;;5013160;28;20371;-69
2022/08/29 13:42:02;;;;;;;;;;;15.60;99.90;;;;;;5012651;28;20330;-69
2022/08/29 13:44:32;;;;;;;;;;;15.60;99.90;;;;;;5012858;28;19952;-69
2022/08/29 13:47:00;;;;;;;;;;;15.60;99.90;;;;;;5012904;28;19910;-69
2022/08/29 13:49:28;;;;;;;;;;;15.60;99.90;;;;;;5013025;28;20355;-70
2022/08/29 13:51:55;;;;;;;;;;;15.60;99.90;;;;;;5012684;28;19948;-69
2022/08/29 13:54:22;;;;;;;;;;;15.60;99.90;;;;;;5013058;28;19913;-69
2022/08/29 13:56:52;;;;;;;;;;;15.70;99.90;;;;;;5012493;28;20042;-70
2022/08/29 13:59:20;;;;;;;;;;;15.70;99.90;;;;;;5012727;28;20374;-69
2022/08/29 14:01:47;;;;;;;;;;;15.70;99.90;;;;;;5012405;28;19918;-70
2022/08/29 14:04:13;;;;;;;;;;;15.70;99.90;;;;;;5013089;28;19910;-68
2022/08/29 14:06:40;;;;;;;;;;;15.80;99.90;;;;;;5012706;28;19909;-69
2022/08/29 14:09:07;;;;;;;;;;;15.80;99.90;;;;;;5012508;28;19924;-70
2022/08/29 14:11:34;;;;;;;;;;;15.80;99.90;;;;;;5012374;28;20434;-69
2022/08/29 14:14:00;;;;;;;;;;;15.80;99.90;;;;;;5012593;28;20279;-69
2022/08/29 14:16:27;;;;;;;;;;;15.80;99.90;;;;;;5012570;28;20006;-70
2022/08/29 14:18:55;;;;;;;;;;;15.80;99.90;;;;;;5012493;28;19910;-69
2022/08/29 14:21:23;;;;;;;;;;;15.80;99.90;;;;;;5012307;28;19962;-70
2022/08/29 14:23:50;;;;;;;;;;;15.80;99.90;;;;;;5012036;28;20294;-70
2022/08/29 14:26:16;;;;;;;;;;;15.80;99.90;;;;;;5011518;28;20417;-69
2022/08/29 14:28:44;;;;;;;;;;;15.80;99.90;;;;;;5012301;28;20282;-69
2022/08/29 14:31:10;;;;;;;;;;;15.80;99.90;;;;;;5043883;28;19921;-70
2022/08/29 14:33:37;;;;;;;;;;;15.80;99.90;;;;;;5012210;28;19955;-69
2022/08/29 14:36:04;;;;;;;;;;;15.80;99.90;;;;;;5012421;28;20355;-70